sensor_id;sensor_type;location;lat;lon;timestamp;pressure;altitude;pressure_sealevel;temperature;humidity
26937;BME280;14495;48.116;11.676;2022-08-18T00:00:47;95194.34;;;19.27;100.00
26937;BME280;14495;48.116;11.676;2022-08-18T00:03:13;95206.19;;;19.15;100.00
26937;BME280;14495;48.116;11.676;2022-08-18T00:05:39;95210.22;;;19.27;100.00
26937;BME280;14495;48.116;11.676;2022-08-18T00:08:05;95203.47;;;19.33;100.00
26937;BME280;14495;48.116;11.676;2022-08-18T00:10:31;95202.22;;;19.19;100.00
26937;BME280;14495;48.116;11.676;2022-08-18T00:12:57;95200.91;;;19.15;100.00
26937;BME280;14495;48.116;11.676;2022-08-18T00:15:23;95192.44;;;19.11;100.00
26937;BME280;14495;48.116;11.676;2022-08-18T00:17:49;95194.13;;;19.21;100.00
26937;BME280;14495;48.116;11.676;2022-08-18T00:20:18;95195.94;;;19.12;100.00
26937;BME280;14495;48.116;11.676;2022-08-18T00:22:43;95195.44;;;19.08;100.00
26937;BME280;14495;48.116;11.676;2022-08-18T00:25:12;95195.75;;;19.13;100.00
26937;BME280;14495;48.116;11.676;2022-08-18T00:27:38;95191.47;;;19.12;100.00
26937;BME280;14495;48.116;11.676;2022-08-18T00:30:08;95191.63;;;19.19;100.00
26937;BME280;14495;48.116;11.676;2022-08-18T00:32:38;95190.47;;;19.13;100.00
26937;BME280;14495;48.116;11.676;2022-08-18T00:35:14;95185.13;;;19.05;100.00
26937;BME280;14495;48.116;11.676;2022-08-18T00:37:41;95205.53;;;19.13;100.00
26937;BME280;14495;48.116;11.676;2022-08-18T00:40:09;95222.22;;;19.05;100.00
26937;BME280;14495;48.116;11.676;2022-08-18T00:42:45;95227.81;;;19.02;100.00
26937;BME280;14495;48.116;11.676;2022-08-18T00:45:15;95217.22;;;19.02;100.00
26937;BME280;14495;48.116;11.676;2022-08-18T00:47:41;95209.84;;;19.14;100.00
26937;BME280;14495;48.116;11.676;2022-08-18T00:50:07;95195.59;;;19.15;100.00
26937;BME280;14495;48.116;11.676;2022-08-18T00:52:33;95195.56;;;19.07;100.00
26937;BME280;14495;48.116;11.676;2022-08-18T00:54:59;95196.88;;;19.03;100.00
26937;BME280;14495;48.116;11.676;2022-08-18T00:57:28;95200.19;;;19.05;100.00
26937;BME280;14495;48.116;11.676;2022-08-18T00:59:59;95183.31;;;19.06;100.00
26937;BME280;14495;48.116;11.676;2022-08-18T01:02:39;95189.91;;;19.02;100.00
26937;BME280;14495;48.116;11.676;2022-08-18T01:05:21;95206.22;;;18.89;100.00
26937;BME280;14495;48.116;11.676;2022-08-18T01:07:50;95228.47;;;18.78;100.00
26937;BME280;14495;48.116;11.676;2022-08-18T01:10:19;95228.44;;;18.70;100.00
26937;BME280;14495;48.116;11.676;2022-08-18T01:12:48;95232.38;;;18.66;100.00
26937;BME280;14495;48.116;11.676;2022-08-18T01:15:15;95216.78;;;18.63;100.00
26937;BME280;14495;48.116;11.676;2022-08-18T01:17:41;95220.34;;;18.71;100.00
26937;BME280;14495;48.116;11.676;2022-08-18T01:20:32;95217.69;;;18.71;100.00
26937;BME280;14495;48.116;11.676;2022-08-18T01:23:19;95216.28;;;18.59;100.00
26937;BME280;14495;48.116;11.676;2022-08-18T01:25:47;95224.34;;;18.58;100.00
26937;BME280;14495;48.116;11.676;2022-08-18T01:28:32;95223.00;;;18.53;100.00
26937;BME280;14495;48.116;11.676;2022-08-18T01:30:59;95227.00;;;18.58;100.00
26937;BME280;14495;48.116;11.676;2022-08-18T01:33:28;95219.06;;;18.58;100.00
26937;BME280;14495;48.116;11.676;2022-08-18T01:35:59;95220.78;;;18.67;100.00
26937;BME280;14495;48.116;11.676;2022-08-18T01:38:25;95216.50;;;18.66;100.00
26937;BME280;14495;48.116;11.676;2022-08-18T01:40:51;95227.78;;;18.50;100.00
26937;BME280;14495;48.116;11.676;2022-08-18T01:43:19;95221.41;;;18.34;100.00
26937;BME280;14495;48.116;11.676;2022-08-18T01:45:44;95221.91;;;18.38;100.00
26937;BME280;14495;48.116;11.676;2022-08-18T01:48:10;95214.50;;;18.42;100.00
26937;BME280;14495;48.116;11.676;2022-08-18T01:50:36;95199.66;;;18.49;100.00
26937;BME280;14495;48.116;11.676;2022-08-18T01:53:04;95199.88;;;18.55;100.00
26937;BME280;14495;48.116;11.676;2022-08-18T01:55:34;95199.16;;;18.45;100.00
26937;BME280;14495;48.116;11.676;2022-08-18T01:58:00;95194.03;;;18.26;100.00
26937;BME280;14495;48.116;11.676;2022-08-18T02:00:26;95192.53;;;18.23;100.00
26937;BME280;14495;48.116;11.676;2022-08-18T02:02:52;95185.53;;;18.14;100.00
26937;BME280;14495;48.116;11.676;2022-08-18T02:05:24;95187.78;;;18.09;100.00
26937;BME280;14495;48.116;11.676;2022-08-18T02:07:53;95198.56;;;18.15;100.00
26937;BME280;14495;48.116;11.676;2022-08-18T02:10:18;95198.91;;;17.94;100.00
26937;BME280;14495;48.116;11.676;2022-08-18T02:12:44;95191.56;;;18.06;100.00
26937;BME280;14495;48.116;11.676;2022-08-18T02:15:10;95186.28;;;18.06;100.00
26937;BME280;14495;48.116;11.676;2022-08-18T02:17:41;95198.00;;;18.04;100.00
26937;BME280;14495;48.116;11.676;2022-08-18T02:20:08;95195.19;;;18.05;100.00
26937;BME280;14495;48.116;11.676;2022-08-18T02:22:34;95197.59;;;18.16;100.00
26937;BME280;14495;48.116;11.676;2022-08-18T02:24:59;95204.19;;;18.12;100.00
26937;BME280;14495;48.116;11.676;2022-08-18T02:27:26;95210.75;;;17.90;100.00
26937;BME280;14495;48.116;11.676;2022-08-18T02:29:52;95204.44;;;18.01;100.00
26937;BME280;14495;48.116;11.676;2022-08-18T02:32:18;95191.25;;;18.09;100.00
26937;BME280;14495;48.116;11.676;2022-08-18T02:34:43;95189.53;;;18.00;100.00
26937;BME280;14495;48.116;11.676;2022-08-18T02:37:09;95185.34;;;17.80;100.00
26937;BME280;14495;48.116;11.676;2022-08-18T02:39:35;95188.19;;;17.96;100.00
26937;BME280;14495;48.116;11.676;2022-08-18T02:42:03;95198.75;;;17.96;100.00
26937;BME280;14495;48.116;11.676;2022-08-18T02:44:29;95196.88;;;17.88;100.00
26937;BME280;14495;48.116;11.676;2022-08-18T02:46:56;95189.31;;;17.93;100.00
26937;BME280;14495;48.116;11.676;2022-08-18T02:49:21;95191.06;;;17.85;100.00
26937;BME280;14495;48.116;11.676;2022-08-18T02:51:47;95179.81;;;17.73;100.00
26937;BME280;14495;48.116;11.676;2022-08-18T02:54:13;95174.19;;;17.86;100.00
26937;BME280;14495;48.116;11.676;2022-08-18T02:56:39;95163.91;;;17.83;100.00
26937;BME280;14495;48.116;11.676;2022-08-18T02:59:07;95164.81;;;17.73;100.00
26937;BME280;14495;48.116;11.676;2022-08-18T03:01:38;95164.97;;;17.72;100.00
26937;BME280;14495;48.116;11.676;2022-08-18T03:04:06;95176.34;;;17.72;100.00
26937;BME280;14495;48.116;11.676;2022-08-18T03:06:33;95178.25;;;17.62;100.00
26937;BME280;14495;48.116;11.676;2022-08-18T03:09:00;95176.19;;;17.56;100.00
26937;BME280;14495;48.116;11.676;2022-08-18T03:11:27;95182.00;;;17.59;100.00
26937;BME280;14495;48.116;11.676;2022-08-18T03:13:54;95186.91;;;17.54;100.00
26937;BME280;14495;48.116;11.676;2022-08-18T03:16:21;95181.47;;;17.56;100.00
26937;BME280;14495;48.116;11.676;2022-08-18T03:18:50;95176.59;;;17.61;100.00
26937;BME280;14495;48.116;11.676;2022-08-18T03:21:20;95179.91;;;17.63;100.00
26937;BME280;14495;48.116;11.676;2022-08-18T03:23:47;95175.91;;;17.59;100.00
26937;BME280;14495;48.116;11.676;2022-08-18T03:26:14;95163.38;;;17.61;100.00
26937;BME280;14495;48.116;11.676;2022-08-18T03:28:42;95158.69;;;17.55;100.00
26937;BME280;14495;48.116;11.676;2022-08-18T03:31:09;95166.47;;;17.56;100.00
26937;BME280;14495;48.116;11.676;2022-08-18T03:33:35;95165.84;;;17.45;100.00
26937;BME280;14495;48.116;11.676;2022-08-18T03:36:11;95171.53;;;17.50;100.00
26937;BME280;14495;48.116;11.676;2022-08-18T03:38:38;95158.03;;;17.53;100.00
26937;BME280;14495;48.116;11.676;2022-08-18T03:41:10;95161.56;;;17.44;100.00
26937;BME280;14495;48.116;11.676;2022-08-18T03:43:37;95159.00;;;17.52;100.00
26937;BME280;14495;48.116;11.676;2022-08-18T03:46:06;95164.34;;;17.42;100.00
26937;BME280;14495;48.116;11.676;2022-08-18T03:48:32;95172.41;;;17.41;100.00
26937;BME280;14495;48.116;11.676;2022-08-18T03:51:25;95169.38;;;17.35;100.00
26937;BME280;14495;48.116;11.676;2022-08-18T03:53:55;95176.00;;;17.39;100.00
26937;BME280;14495;48.116;11.676;2022-08-18T03:56:29;95170.44;;;17.43;100.00
26937;BME280;14495;48.116;11.676;2022-08-18T03:59:00;95152.06;;;17.51;100.00
26937;BME280;14495;48.116;11.676;2022-08-18T04:01:28;95141.78;;;17.48;100.00
26937;BME280;14495;48.116;11.676;2022-08-18T04:03:58;95144.13;;;17.51;100.00
26937;BME280;14495;48.116;11.676;2022-08-18T04:06:29;95161.72;;;17.60;100.00
26937;BME280;14495;48.116;11.676;2022-08-18T04:08:56;95164.94;;;17.54;100.00
26937;BME280;14495;48.116;11.676;2022-08-18T04:11:22;95165.88;;;17.63;100.00
26937;BME280;14495;48.116;11.676;2022-08-18T04:13:49;95165.34;;;17.59;100.00
26937;BME280;14495;48.116;11.676;2022-08-18T04:16:15;95160.34;;;17.56;100.00
26937;BME280;14495;48.116;11.676;2022-08-18T04:18:41;95155.06;;;17.56;100.00
26937;BME280;14495;48.116;11.676;2022-08-18T04:21:09;95148.44;;;17.52;100.00
26937;BME280;14495;48.116;11.676;2022-08-18T04:23:39;95136.50;;;17.48;100.00
26937;BME280;14495;48.116;11.676;2022-08-18T04:26:06;95131.91;;;17.50;100.00
26937;BME280;14495;48.116;11.676;2022-08-18T04:28:32;95126.16;;;17.54;100.00
26937;BME280;14495;48.116;11.676;2022-08-18T04:30:57;95124.91;;;17.58;100.00
26937;BME280;14495;48.116;11.676;2022-08-18T04:33:25;95129.50;;;17.56;100.00
26937;BME280;14495;48.116;11.676;2022-08-18T04:35:52;95120.06;;;17.54;100.00
26937;BME280;14495;48.116;11.676;2022-08-18T04:38:17;95124.91;;;17.58;100.00
26937;BME280;14495;48.116;11.676;2022-08-18T04:40:42;95123.97;;;17.50;100.00
26937;BME280;14495;48.116;11.676;2022-08-18T04:43:08;95124.78;;;17.50;100.00
26937;BME280;14495;48.116;11.676;2022-08-18T04:45:48;95121.41;;;17.58;100.00
26937;BME280;14495;48.116;11.676;2022-08-18T04:48:15;95123.31;;;17.48;100.00
26937;BME280;14495;48.116;11.676;2022-08-18T04:50:41;95131.63;;;17.53;100.00
26937;BME280;14495;48.116;11.676;2022-08-18T04:53:07;95139.53;;;17.53;100.00
26937;BME280;14495;48.116;11.676;2022-08-18T04:55:53;95137.44;;;17.56;100.00
26937;BME280;14495;48.116;11.676;2022-08-18T04:58:20;95145.94;;;17.68;100.00
26937;BME280;14495;48.116;11.676;2022-08-18T05:00:46;95150.63;;;17.74;100.00
26937;BME280;14495;48.116;11.676;2022-08-18T05:03:19;95149.03;;;17.82;100.00
26937;BME280;14495;48.116;11.676;2022-08-18T05:05:45;95160.41;;;17.92;100.00
26937;BME280;14495;48.116;11.676;2022-08-18T05:08:11;95161.38;;;17.91;100.00
26937;BME280;14495;48.116;11.676;2022-08-18T05:10:36;95168.09;;;18.03;100.00
26937;BME280;14495;48.116;11.676;2022-08-18T05:13:02;95176.94;;;18.12;100.00
26937;BME280;14495;48.116;11.676;2022-08-18T05:15:27;95174.78;;;18.15;100.00
26937;BME280;14495;48.116;11.676;2022-08-18T05:17:52;95173.97;;;18.15;100.00
26937;BME280;14495;48.116;11.676;2022-08-18T05:20:18;95178.94;;;18.36;100.00
26937;BME280;14495;48.116;11.676;2022-08-18T05:22:43;95182.28;;;18.46;100.00
26937;BME280;14495;48.116;11.676;2022-08-18T05:25:11;95182.00;;;18.49;100.00
26937;BME280;14495;48.116;11.676;2022-08-18T05:27:40;95184.06;;;18.64;100.00
26937;BME280;14495;48.116;11.676;2022-08-18T05:30:07;95184.53;;;18.85;100.00
26937;BME280;14495;48.116;11.676;2022-08-18T05:32:38;95188.28;;;19.01;100.00
26937;BME280;14495;48.116;11.676;2022-08-18T05:35:09;95191.31;;;19.14;100.00
26937;BME280;14495;48.116;11.676;2022-08-18T05:40:25;95202.63;;;19.33;100.00
26937;BME280;14495;48.116;11.676;2022-08-18T05:42:51;95190.63;;;19.55;100.00
26937;BME280;14495;48.116;11.676;2022-08-18T05:45:19;95198.06;;;19.59;100.00
26937;BME280;14495;48.116;11.676;2022-08-18T05:47:44;95198.47;;;19.73;100.00
26937;BME280;14495;48.116;11.676;2022-08-18T05:50:15;95199.16;;;19.83;100.00
26937;BME280;14495;48.116;11.676;2022-08-18T05:52:54;95205.31;;;19.92;100.00
26937;BME280;14495;48.116;11.676;2022-08-18T05:58:34;95221.38;;;19.90;100.00
26937;BME280;14495;48.116;11.676;2022-08-18T06:01:05;95223.69;;;19.93;100.00
26937;BME280;14495;48.116;11.676;2022-08-18T06:03:41;95214.75;;;20.02;100.00
26937;BME280;14495;48.116;11.676;2022-08-18T06:06:10;95219.91;;;19.96;100.00
26937;BME280;14495;48.116;11.676;2022-08-18T06:08:42;95198.84;;;20.02;100.00
26937;BME280;14495;48.116;11.676;2022-08-18T06:11:09;95198.69;;;20.04;100.00
26937;BME280;14495;48.116;11.676;2022-08-18T06:13:37;95202.84;;;20.06;100.00
26937;BME280;14495;48.116;11.676;2022-08-18T06:16:24;95209.16;;;20.14;100.00
26937;BME280;14495;48.116;11.676;2022-08-18T06:19:15;95221.25;;;20.16;100.00
26937;BME280;14495;48.116;11.676;2022-08-18T06:24:30;95218.09;;;20.13;100.00
26937;BME280;14495;48.116;11.676;2022-08-18T06:27:15;95215.28;;;20.14;100.00
26937;BME280;14495;48.116;11.676;2022-08-18T06:38:06;95204.00;;;20.53;100.00
26937;BME280;14495;48.116;11.676;2022-08-18T06:41:33;95191.31;;;21.52;100.00
26937;BME280;14495;48.116;11.676;2022-08-18T06:44:08;95193.03;;;21.37;100.00
26937;BME280;14495;48.116;11.676;2022-08-18T06:54:55;95193.44;;;21.88;100.00
26937;BME280;14495;48.116;11.676;2022-08-18T06:59:57;95156.16;;;21.73;100.00
26937;BME280;14495;48.116;11.676;2022-08-18T07:02:48;95152.28;;;21.76;100.00
26937;BME280;14495;48.116;11.676;2022-08-18T07:05:22;95159.97;;;21.71;100.00
26937;BME280;14495;48.116;11.676;2022-08-18T07:10:48;95168.97;;;22.16;100.00
26937;BME280;14495;48.116;11.676;2022-08-18T07:13:20;95182.53;;;22.06;100.00
26937;BME280;14495;48.116;11.676;2022-08-18T07:15:48;95179.44;;;21.94;100.00
26937;BME280;14495;48.116;11.676;2022-08-18T07:18:20;95176.97;;;22.16;100.00
26937;BME280;14495;48.116;11.676;2022-08-18T07:20:53;95172.16;;;21.88;100.00
26937;BME280;14495;48.116;11.676;2022-08-18T07:26:08;95172.84;;;22.36;100.00
26937;BME280;14495;48.116;11.676;2022-08-18T07:28:49;95180.31;;;22.71;100.00
26937;BME280;14495;48.116;11.676;2022-08-18T07:31:33;95182.28;;;22.77;100.00
26937;BME280;14495;48.116;11.676;2022-08-18T07:34:09;95192.63;;;22.57;100.00
26937;BME280;14495;48.116;11.676;2022-08-18T07:36:41;95199.28;;;22.91;100.00
26937;BME280;14495;48.116;11.676;2022-08-18T07:39:27;95182.28;;;22.92;100.00
26937;BME280;14495;48.116;11.676;2022-08-18T07:42:02;95172.41;;;22.63;100.00
26937;BME280;14495;48.116;11.676;2022-08-18T07:44:41;95162.56;;;22.48;100.00
26937;BME280;14495;48.116;11.676;2022-08-18T07:47:16;95159.06;;;22.33;100.00
26937;BME280;14495;48.116;11.676;2022-08-18T07:49:43;95168.69;;;22.87;100.00
26937;BME280;14495;48.116;11.676;2022-08-18T07:52:24;95171.63;;;22.92;100.00
26937;BME280;14495;48.116;11.676;2022-08-18T07:57:59;95153.50;;;23.02;100.00
26937;BME280;14495;48.116;11.676;2022-08-18T08:00:32;95158.59;;;23.27;100.00
26937;BME280;14495;48.116;11.676;2022-08-18T08:03:11;95172.19;;;23.32;100.00
26937;BME280;14495;48.116;11.676;2022-08-18T08:06:15;95175.06;;;23.30;100.00
26937;BME280;14495;48.116;11.676;2022-08-18T08:08:50;95177.44;;;23.10;100.00
26937;BME280;14495;48.116;11.676;2022-08-18T08:16:27;95170.88;;;22.98;100.00
26937;BME280;14495;48.116;11.676;2022-08-18T08:22:00;95151.16;;;23.73;100.00
26937;BME280;14495;48.116;11.676;2022-08-18T08:24:52;95151.22;;;23.95;100.00
26937;BME280;14495;48.116;11.676;2022-08-18T08:27:33;95156.16;;;24.20;100.00
26937;BME280;14495;48.116;11.676;2022-08-18T08:30:20;95160.53;;;24.27;100.00
26937;BME280;14495;48.116;11.676;2022-08-18T08:35:20;95155.84;;;24.58;100.00
26937;BME280;14495;48.116;11.676;2022-08-18T08:37:57;95147.03;;;24.36;100.00
26937;BME280;14495;48.116;11.676;2022-08-18T08:40:41;95149.09;;;23.90;100.00
26937;BME280;14495;48.116;11.676;2022-08-18T08:43:13;95134.66;;;24.28;100.00
26937;BME280;14495;48.116;11.676;2022-08-18T08:46:00;95131.03;;;23.92;100.00
26937;BME280;14495;48.116;11.676;2022-08-18T08:48:31;95140.00;;;23.85;100.00
26937;BME280;14495;48.116;11.676;2022-08-18T08:51:35;95140.28;;;23.90;100.00
26937;BME280;14495;48.116;11.676;2022-08-18T08:54:22;95144.03;;;24.17;100.00
26937;BME280;14495;48.116;11.676;2022-08-18T08:56:51;95141.56;;;24.22;100.00
26937;BME280;14495;48.116;11.676;2022-08-18T08:59:19;95144.41;;;24.64;100.00
26937;BME280;14495;48.116;11.676;2022-08-18T09:02:14;95129.38;;;24.91;92.97
26937;BME280;14495;48.116;11.676;2022-08-18T09:04:54;95128.81;;;24.67;99.70
26937;BME280;14495;48.116;11.676;2022-08-18T09:16:03;95118.00;;;25.72;80.90
26937;BME280;14495;48.116;11.676;2022-08-18T09:18:47;95112.66;;;25.65;77.57
26937;BME280;14495;48.116;11.676;2022-08-18T09:24:23;95133.75;;;26.02;71.51
26937;BME280;14495;48.116;11.676;2022-08-18T09:27:11;95139.31;;;26.00;68.59
26937;BME280;14495;48.116;11.676;2022-08-18T09:40:35;95096.34;;;28.36;58.32
26937;BME280;14495;48.116;11.676;2022-08-18T09:43:33;95099.94;;;28.73;56.27
26937;BME280;14495;48.116;11.676;2022-08-18T09:46:01;95108.81;;;28.24;57.10
26937;BME280;14495;48.116;11.676;2022-08-18T09:48:35;95111.31;;;28.94;55.76
26937;BME280;14495;48.116;11.676;2022-08-18T09:51:39;95104.75;;;29.08;53.76
26937;BME280;14495;48.116;11.676;2022-08-18T09:54:09;95102.78;;;28.79;54.34
26937;BME280;14495;48.116;11.676;2022-08-18T10:02:01;95126.28;;;29.64;54.35
26937;BME280;14495;48.116;11.676;2022-08-18T10:07:32;95114.94;;;29.43;52.92
26937;BME280;14495;48.116;11.676;2022-08-18T10:10:02;95105.91;;;29.38;52.70
26937;BME280;14495;48.116;11.676;2022-08-18T10:15:06;95104.00;;;28.83;55.74
26937;BME280;14495;48.116;11.676;2022-08-18T10:20:41;95120.31;;;28.63;55.25
26937;BME280;14495;48.116;11.676;2022-08-18T10:31:20;95141.75;;;29.32;52.45
26937;BME280;14495;48.116;11.676;2022-08-18T10:34:09;95139.69;;;29.15;53.91
26937;BME280;14495;48.116;11.676;2022-08-18T10:37:41;95126.22;;;29.52;51.79
26937;BME280;14495;48.116;11.676;2022-08-18T10:44:40;95118.13;;;27.51;55.83
26937;BME280;14495;48.116;11.676;2022-08-18T10:47:09;95108.72;;;28.12;54.94
26937;BME280;14495;48.116;11.676;2022-08-18T10:49:47;95101.19;;;29.33;51.95
26937;BME280;14495;48.116;11.676;2022-08-18T10:52:27;95115.00;;;30.04;51.29
26937;BME280;14495;48.116;11.676;2022-08-18T10:55:20;95099.00;;;31.27;47.80
26937;BME280;14495;48.116;11.676;2022-08-18T11:00:40;95092.22;;;30.54;47.25
26937;BME280;14495;48.116;11.676;2022-08-18T11:05:46;95094.66;;;28.85;51.83
26937;BME280;14495;48.116;11.676;2022-08-18T11:08:13;95087.63;;;30.19;50.25
26937;BME280;14495;48.116;11.676;2022-08-18T11:10:44;95075.59;;;30.80;47.60
26937;BME280;14495;48.116;11.676;2022-08-18T11:13:26;95095.34;;;29.55;50.04
26937;BME280;14495;48.116;11.676;2022-08-18T11:18:48;95073.50;;;27.95;53.17
26937;BME280;14495;48.116;11.676;2022-08-18T11:24:16;95075.16;;;28.46;52.65
26937;BME280;14495;48.116;11.676;2022-08-18T11:26:44;95072.78;;;28.63;53.12
26937;BME280;14495;48.116;11.676;2022-08-18T11:32:16;95052.22;;;30.27;50.03
26937;BME280;14495;48.116;11.676;2022-08-18T11:34:47;95047.84;;;31.20;47.73
26937;BME280;14495;48.116;11.676;2022-08-18T11:43:00;95029.91;;;28.87;52.80
26937;BME280;14495;48.116;11.676;2022-08-18T11:45:33;95036.25;;;30.02;50.70
26937;BME280;14495;48.116;11.676;2022-08-18T11:48:31;95031.94;;;30.01;49.99
26937;BME280;14495;48.116;11.676;2022-08-18T11:56:11;94993.91;;;30.44;49.41
26937;BME280;14495;48.116;11.676;2022-08-18T11:58:50;94979.50;;;30.51;47.95
26937;BME280;14495;48.116;11.676;2022-08-18T12:07:05;94953.13;;;31.05;47.21
26937;BME280;14495;48.116;11.676;2022-08-18T12:12:04;94947.88;;;31.56;46.93
26937;BME280;14495;48.116;11.676;2022-08-18T12:14:33;94976.25;;;31.30;47.88
26937;BME280;14495;48.116;11.676;2022-08-18T12:17:14;94984.00;;;30.97;47.81
26937;BME280;14495;48.116;11.676;2022-08-18T12:19:39;94998.31;;;29.92;49.13
26937;BME280;14495;48.116;11.676;2022-08-18T12:22:23;95003.53;;;28.59;51.67
26937;BME280;14495;48.116;11.676;2022-08-18T12:24:50;94994.84;;;29.12;50.46
26937;BME280;14495;48.116;11.676;2022-08-18T12:27:19;94979.81;;;29.53;50.36
26937;BME280;14495;48.116;11.676;2022-08-18T12:29:45;94980.50;;;29.00;51.06
26937;BME280;14495;48.116;11.676;2022-08-18T12:32:12;94979.66;;;28.87;51.86
26937;BME280;14495;48.116;11.676;2022-08-18T12:34:38;94974.38;;;29.11;50.53
26937;BME280;14495;48.116;11.676;2022-08-18T12:37:07;94977.59;;;29.20;50.48
26937;BME280;14495;48.116;11.676;2022-08-18T12:39:33;94966.63;;;29.21;50.16
26937;BME280;14495;48.116;11.676;2022-08-18T12:42:00;94961.66;;;28.69;50.62
26937;BME280;14495;48.116;11.676;2022-08-18T12:44:26;94972.59;;;28.31;51.84
26937;BME280;14495;48.116;11.676;2022-08-18T12:46:51;94971.66;;;28.19;52.17
26937;BME280;14495;48.116;11.676;2022-08-18T12:49:19;94982.34;;;28.69;51.86
26937;BME280;14495;48.116;11.676;2022-08-18T12:51:46;94979.88;;;28.67;51.24
26937;BME280;14495;48.116;11.676;2022-08-18T12:54:12;94974.13;;;28.82;52.51
26937;BME280;14495;48.116;11.676;2022-08-18T12:56:39;94971.72;;;28.92;52.74
26937;BME280;14495;48.116;11.676;2022-08-18T12:59:07;94975.19;;;28.19;54.30
26937;BME280;14495;48.116;11.676;2022-08-18T13:01:36;94979.34;;;28.15;54.33
26937;BME280;14495;48.116;11.676;2022-08-18T13:04:01;94981.84;;;28.35;55.09
26937;BME280;14495;48.116;11.676;2022-08-18T13:06:28;94975.47;;;27.86;55.51
26937;BME280;14495;48.116;11.676;2022-08-18T13:08:54;94977.31;;;27.60;56.79
26937;BME280;14495;48.116;11.676;2022-08-18T13:11:20;94951.78;;;27.51;57.84
26937;BME280;14495;48.116;11.676;2022-08-18T13:13:46;94945.81;;;27.74;58.29
26937;BME280;14495;48.116;11.676;2022-08-18T13:16:12;94940.06;;;27.70;58.61
26937;BME280;14495;48.116;11.676;2022-08-18T13:18:39;94926.44;;;27.47;59.18
26937;BME280;14495;48.116;11.676;2022-08-18T13:21:07;94917.88;;;27.25;60.22
26937;BME280;14495;48.116;11.676;2022-08-18T13:23:34;94920.56;;;27.25;61.23
26937;BME280;14495;48.116;11.676;2022-08-18T13:26:00;94915.75;;;27.02;60.98
26937;BME280;14495;48.116;11.676;2022-08-18T13:28:27;94918.69;;;26.93;62.13
26937;BME280;14495;48.116;11.676;2022-08-18T13:30:52;94923.66;;;26.90;62.77
26937;BME280;14495;48.116;11.676;2022-08-18T13:33:18;94931.31;;;26.79;61.70
26937;BME280;14495;48.116;11.676;2022-08-18T13:35:45;94932.78;;;26.75;61.84
26937;BME280;14495;48.116;11.676;2022-08-18T13:38:12;94934.06;;;26.59;64.47
26937;BME280;14495;48.116;11.676;2022-08-18T13:40:38;94943.34;;;26.50;66.17
26937;BME280;14495;48.116;11.676;2022-08-18T13:43:03;94948.97;;;26.42;68.09
26937;BME280;14495;48.116;11.676;2022-08-18T13:45:29;94950.63;;;26.43;63.59
26937;BME280;14495;48.116;11.676;2022-08-18T13:47:54;94958.03;;;26.41;63.43
26937;BME280;14495;48.116;11.676;2022-08-18T13:50:20;94956.59;;;26.45;64.23
26937;BME280;14495;48.116;11.676;2022-08-18T13:52:45;94949.81;;;26.36;64.76
26937;BME280;14495;48.116;11.676;2022-08-18T13:55:15;94935.94;;;26.66;63.12
26937;BME280;14495;48.116;11.676;2022-08-18T13:57:41;94918.81;;;26.67;62.92
26937;BME280;14495;48.116;11.676;2022-08-18T14:00:15;94913.44;;;26.73;61.98
26937;BME280;14495;48.116;11.676;2022-08-18T14:02:42;94898.06;;;26.94;62.54
26937;BME280;14495;48.116;11.676;2022-08-18T14:05:08;94891.56;;;26.76;62.56
26937;BME280;14495;48.116;11.676;2022-08-18T14:07:34;94885.56;;;26.81;63.71
26937;BME280;14495;48.116;11.676;2022-08-18T14:10:01;94868.06;;;26.78;64.00
26937;BME280;14495;48.116;11.676;2022-08-18T14:12:27;94860.03;;;26.78;65.98
26937;BME280;14495;48.116;11.676;2022-08-18T14:14:54;94850.72;;;26.81;65.83
26937;BME280;14495;48.116;11.676;2022-08-18T14:17:21;94854.44;;;26.80;65.83
26937;BME280;14495;48.116;11.676;2022-08-18T14:19:47;94843.84;;;26.60;66.94
26937;BME280;14495;48.116;11.676;2022-08-18T14:22:31;94837.25;;;26.49;72.03
26937;BME280;14495;48.116;11.676;2022-08-18T14:25:15;94836.41;;;26.55;70.04
26937;BME280;14495;48.116;11.676;2022-08-18T14:27:59;94829.03;;;26.44;71.88
26937;BME280;14495;48.116;11.676;2022-08-18T14:30:24;94827.97;;;26.52;70.62
26937;BME280;14495;48.116;11.676;2022-08-18T14:32:50;94832.72;;;26.50;71.41
26937;BME280;14495;48.116;11.676;2022-08-18T14:35:17;94834.78;;;26.54;70.87
26937;BME280;14495;48.116;11.676;2022-08-18T14:37:44;94832.31;;;26.53;72.37
26937;BME280;14495;48.116;11.676;2022-08-18T14:40:10;94833.94;;;26.60;71.45
26937;BME280;14495;48.116;11.676;2022-08-18T14:42:36;94829.38;;;26.68;70.65
26937;BME280;14495;48.116;11.676;2022-08-18T14:45:02;94834.03;;;26.34;71.76
26937;BME280;14495;48.116;11.676;2022-08-18T14:47:27;94826.28;;;26.57;71.73
26937;BME280;14495;48.116;11.676;2022-08-18T14:49:54;94826.25;;;26.71;70.01
26937;BME280;14495;48.116;11.676;2022-08-18T14:52:21;94819.63;;;26.73;70.62
26937;BME280;14495;48.116;11.676;2022-08-18T14:54:47;94824.41;;;26.65;71.30
26937;BME280;14495;48.116;11.676;2022-08-18T14:57:13;94819.72;;;26.53;71.19
26937;BME280;14495;48.116;11.676;2022-08-18T14:59:39;94815.03;;;26.42;73.29
26937;BME280;14495;48.116;11.676;2022-08-18T15:02:09;94812.03;;;26.25;75.20
26937;BME280;14495;48.116;11.676;2022-08-18T15:04:35;94806.88;;;26.23;75.73
26937;BME280;14495;48.116;11.676;2022-08-18T15:07:01;94816.38;;;26.19;78.20
26937;BME280;14495;48.116;11.676;2022-08-18T15:09:26;94813.59;;;25.94;81.70
26937;BME280;14495;48.116;11.676;2022-08-18T15:11:55;94816.28;;;25.81;80.56